Time;durP1;ratioP1;P1;durP2;ratioP2;P2;SDS_P1;SDS_P2;PMS_P1;PMS_P2;Temp;Humidity;BMP_temperature;BMP_pressure;BME280_temperature;BME280_humidity;BME280_pressure;Samples;Min_cycle;Max_cycle;Signal;HPM_P1;HPM_P2
2022/06/18 00:00:01;;;;;;;3.63;1.58;;;23.30;64.40;;;;;;2095611;28;20107;-71
2022/06/18 00:01:01;;;;;;;3.85;1.52;;;23.30;64.30;;;;;;2096098;28;20021;-71
2022/06/18 00:02:05;;;;;;;2.92;1.60;;;23.30;64.40;;;;;;2093774;28;20159;-71
2022/06/18 00:03:05;;;;;;;2.85;1.85;;;23.30;64.50;;;;;;2096930;28;20019;-71
2022/06/18 00:04:09;;;;;;;3.30;1.42;;;23.30;64.60;;;;;;2094866;28;20029;-71
2022/06/18 00:05:13;;;;;;;2.20;1.67;;;23.30;64.40;;;;;;2097607;28;20020;-71
2022/06/18 00:06:13;;;;;;;5.53;1.77;;;23.40;64.10;;;;;;2095860;28;20032;-71
2022/06/18 00:07:18;;;;;;;2.65;1.90;;;23.30;63.90;;;;;;2096665;28;20052;-71
2022/06/18 00:08:24;;;;;;;2.28;1.42;;;23.40;64.20;;;;;;2095235;28;20036;-71
2022/06/18 00:09:51;;;;;;;2.65;1.42;;;23.30;64.10;;;;;;2098379;28;20016;-71
2022/06/18 00:13:43;;;;;;;4.30;2.10;;;23.30;65.20;;;;;;2097242;28;20419;-71
2022/06/18 00:14:45;;;;;;;5.80;1.95;;;23.30;64.70;;;;;;2099238;28;20030;-71
2022/06/18 00:15:45;;;;;;;2.83;1.60;;;23.30;64.90;;;;;;2098105;28;20038;-71
2022/06/18 00:16:46;;;;;;;3.85;1.70;;;23.30;64.80;;;;;;2095126;28;20052;-71
2022/06/18 00:17:47;;;;;;;4.47;1.67;;;23.30;65.10;;;;;;2096564;28;20054;-71
2022/06/18 00:18:48;;;;;;;2.92;1.85;;;23.30;65.00;;;;;;2096102;28;20029;-71
2022/06/18 00:19:49;;;;;;;2.88;1.60;;;23.30;64.90;;;;;;2097637;28;20494;-71
2022/06/18 00:20:50;;;;;;;2.72;1.40;;;23.30;64.90;;;;;;2095279;28;20039;-71
2022/06/18 00:21:51;;;;;;;3.00;1.60;;;23.30;64.60;;;;;;2098600;28;20024;-71
2022/06/18 00:22:55;;;;;;;2.35;1.63;;;23.30;64.70;;;;;;2096832;28;20021;-71
2022/06/18 00:23:56;;;;;;;2.45;1.77;;;23.30;64.50;;;;;;2096333;28;20456;-72
2022/06/18 00:24:57;;;;;;;3.60;1.77;;;23.30;65.00;;;;;;2096010;28;20373;-71
2022/06/18 00:25:58;;;;;;;3.83;1.65;;;23.30;65.10;;;;;;2094951;28;20150;-71
2022/06/18 00:26:58;;;;;;;3.95;1.80;;;23.30;64.90;;;;;;2108755;28;20030;-71
2022/06/18 00:28:00;;;;;;;1.63;1.50;;;23.30;64.90;;;;;;2111959;28;20076;-71
2022/06/18 00:29:00;;;;;;;1.88;1.40;;;23.30;65.10;;;;;;2097654;28;21275;-71
2022/06/18 00:30:01;;;;;;;3.08;2.03;;;23.30;65.10;;;;;;2099606;28;20403;-71
2022/06/18 00:31:02;;;;;;;3.10;1.70;;;23.30;64.80;;;;;;2097484;28;20019;-71
2022/06/18 00:32:02;;;;;;;3.72;1.50;;;23.30;64.70;;;;;;2098115;28;20534;-71
2022/06/18 00:33:03;;;;;;;1.85;1.65;;;23.40;64.90;;;;;;2097535;28;20053;-71
2022/06/18 00:34:04;;;;;;;2.55;1.52;;;23.40;64.70;;;;;;2096195;28;20039;-71
2022/06/18 00:35:05;;;;;;;1.80;1.70;;;23.40;64.70;;;;;;2096191;28;20110;-71
2022/06/18 00:36:09;;;;;;;3.65;1.77;;;23.40;64.50;;;;;;2096784;28;20028;-71
2022/06/18 00:37:16;;;;;;;6.03;1.77;;;23.40;64.80;;;;;;2095097;28;20574;-71
2022/06/18 00:38:25;;;;;;;4.00;1.58;;;23.40;64.70;;;;;;2095274;28;20035;-71
2022/06/18 00:39:28;;;;;;;2.90;1.55;;;23.40;64.80;;;;;;2097442;28;20089;-71
2022/06/18 00:40:36;;;;;;;3.78;1.70;;;23.40;64.60;;;;;;2095953;28;20021;-72
2022/06/18 00:41:40;;;;;;;2.90;1.83;;;23.40;64.80;;;;;;2096418;28;20020;-71
2022/06/18 00:42:42;;;;;;;1.98;1.52;;;23.40;64.60;;;;;;2093930;28;20059;-72
2022/06/18 00:43:58;;;;;;;1.90;1.70;;;23.40;64.70;;;;;;2094167;28;20099;-71
2022/06/18 00:45:02;;;;;;;2.28;1.60;;;23.40;65.00;;;;;;2094830;28;20503;-71
2022/06/18 00:46:17;;;;;;;4.43;1.52;;;23.30;64.90;;;;;;2097002;28;20566;-71
2022/06/18 00:47:28;;;;;;;2.05;1.85;;;23.40;64.80;;;;;;2095186;28;20043;-71
2022/06/18 00:48:45;;;;;;;1.70;1.60;;;23.40;64.90;;;;;;2096399;28;20020;-71
2022/06/18 00:50:00;;;;;;;1.77;1.48;;;23.30;64.90;;;;;;2097727;28;20033;-71
2022/06/18 00:51:10;;;;;;;2.17;1.60;;;23.40;64.60;;;;;;2095910;28;20051;-72
2022/06/18 00:52:14;;;;;;;4.05;2.00;;;23.30;64.70;;;;;;2095104;28;20020;-71
2022/06/18 00:53:33;;;;;;;2.20;1.90;;;23.40;64.80;;;;;;2097528;28;20059;-71
2022/06/18 00:55:18;;;;;;;3.53;1.50;;;23.40;64.90;;;;;;2095433;28;20017;-72
2022/06/18 00:56:19;;;;;;;5.35;1.75;;;23.30;65.20;;;;;;2091053;28;20033;-71
2022/06/18 00:57:36;;;;;;;4.20;1.88;;;23.30;65.00;;;;;;2096008;28;20242;-71
2022/06/18 00:58:55;;;;;;;2.30;1.60;;;23.30;64.90;;;;;;2097029;28;20024;-71
2022/06/18 01:00:20;;;;;;;1.65;1.42;;;23.30;65.10;;;;;;2097346;28;20027;-71
2022/06/18 01:01:28;;;;;;;2.15;1.60;;;23.30;65.00;;;;;;2097052;28;20040;-71
2022/06/18 01:02:45;;;;;;;1.98;1.63;;;23.30;65.10;;;;;;2096030;28;20054;-71
2022/06/18 01:03:46;;;;;;;2.72;1.73;;;23.30;64.80;;;;;;2095487;28;20020;-71
2022/06/18 01:04:47;;;;;;;1.67;1.33;;;23.30;64.70;;;;;;2094023;28;20085;-71
2022/06/18 01:05:48;;;;;;;2.30;1.80;;;23.30;64.70;;;;;;2099184;28;20070;-71
2022/06/18 01:06:58;;;;;;;2.30;1.73;;;23.40;65.00;;;;;;2094684;28;20020;-71
2022/06/18 01:08:03;;;;;;;1.90;1.60;;;23.40;64.90;;;;;;2096257;28;20025;-71
2022/06/18 01:09:11;;;;;;;2.28;1.77;;;23.40;64.80;;;;;;2094361;28;20029;-71
2022/06/18 01:10:24;;;;;;;1.83;1.52;;;23.40;65.00;;;;;;2098314;28;20017;-71
2022/06/18 01:11:28;;;;;;;2.85;1.85;;;23.40;64.90;;;;;;2097010;28;20519;-71
2022/06/18 01:12:30;;;;;;;3.50;1.73;;;23.40;64.90;;;;;;2095618;28;20020;-71
2022/06/18 01:13:40;;;;;;;3.08;1.60;;;23.40;64.90;;;;;;2097280;28;20111;-72
2022/06/18 01:14:42;;;;;;;2.20;1.58;;;23.40;64.90;;;;;;2097788;28;20103;-71
2022/06/18 01:15:44;;;;;;;3.15;1.90;;;23.40;65.00;;;;;;2095179;28;20040;-71
2022/06/18 01:16:46;;;;;;;4.18;1.70;;;23.40;65.00;;;;;;2095266;28;20079;-72
2022/06/18 01:17:50;;;;;;;2.83;1.58;;;23.40;65.00;;;;;;2100279;28;20016;-71
2022/06/18 01:18:51;;;;;;;4.78;1.80;;;23.40;65.00;;;;;;2096113;28;20078;-71
2022/06/18 01:19:52;;;;;;;2.28;1.80;;;23.40;65.00;;;;;;2095467;28;20020;-71
2022/06/18 01:20:59;;;;;;;2.28;1.77;;;23.40;65.00;;;;;;2095507;28;20020;-71
2022/06/18 01:22:31;;;;;;;2.67;1.50;;;23.40;65.00;;;;;;2092535;28;20017;-71
2022/06/18 01:23:39;;;;;;;2.53;1.60;;;23.40;65.30;;;;;;2095557;28;20024;-71
2022/06/18 01:24:41;;;;;;;1.80;1.42;;;23.40;64.70;;;;;;2099000;28;20106;-71
2022/06/18 01:25:42;;;;;;;3.90;1.70;;;23.40;64.80;;;;;;2097421;28;20021;-71
2022/06/18 01:26:46;;;;;;;2.10;1.60;;;23.40;65.20;;;;;;2097140;28;20104;-71
2022/06/18 01:27:47;;;;;;;3.15;1.48;;;23.40;65.20;;;;;;2094661;28;20081;-71
2022/06/18 01:28:47;;;;;;;2.33;1.30;;;23.40;65.10;;;;;;2096440;28;20101;-71
2022/06/18 01:29:48;;;;;;;2.88;1.83;;;23.40;65.30;;;;;;2097068;28;20028;-72
2022/06/18 01:30:48;;;;;;;2.00;1.65;;;23.40;65.30;;;;;;2096757;28;20025;-72
2022/06/18 01:31:50;;;;;;;3.50;1.60;;;23.40;65.10;;;;;;2095407;28;20036;-71
2022/06/18 01:32:54;;;;;;;1.70;1.33;;;23.40;65.20;;;;;;2096885;28;20069;-72
2022/06/18 01:33:54;;;;;;;4.00;1.92;;;23.40;65.20;;;;;;2095976;28;20082;-72
2022/06/18 01:34:55;;;;;;;2.25;1.90;;;23.40;65.70;;;;;;2095805;28;20028;-71
2022/06/18 01:35:56;;;;;;;2.00;1.80;;;23.40;65.60;;;;;;2094711;28;20026;-71
2022/06/18 01:37:01;;;;;;;3.17;1.77;;;23.40;65.70;;;;;;2095791;28;20020;-71
2022/06/18 01:38:02;;;;;;;5.05;2.08;;;23.40;65.50;;;;;;2095729;28;20025;-71
2022/06/18 01:39:07;;;;;;;4.20;1.88;;;23.40;65.40;;;;;;2095533;28;20019;-71
2022/06/18 01:40:12;;;;;;;3.67;1.80;;;23.40;65.20;;;;;;2096677;28;20500;-71
2022/06/18 01:42:47;;;;;;;3.95;1.70;;;23.40;65.10;;;;;;2094014;28;20489;-71
2022/06/18 01:43:51;;;;;;;1.50;1.40;;;23.30;65.10;;;;;;2095876;28;20028;-71
2022/06/18 01:45:00;;;;;;;4.32;1.90;;;23.30;65.20;;;;;;2093597;28;20600;-71
2022/06/18 01:46:02;;;;;;;3.40;1.75;;;23.30;65.20;;;;;;2095403;28;20404;-71
2022/06/18 01:47:25;;;;;;;2.53;1.60;;;23.30;65.30;;;;;;2097855;28;20039;-72
2022/06/18 01:48:35;;;;;;;3.63;1.65;;;23.30;65.40;;;;;;2098088;28;20039;-71
2022/06/18 01:49:50;;;;;;;4.88;1.73;;;23.30;65.40;;;;;;2096040;28;20021;-71
2022/06/18 01:50:56;;;;;;;1.85;1.42;;;23.30;65.60;;;;;;2097430;28;20541;-71
2022/06/18 01:52:00;;;;;;;1.70;1.60;;;23.30;65.60;;;;;;2098016;28;20434;-71
2022/06/18 01:53:09;;;;;;;3.58;1.88;;;23.30;65.50;;;;;;2095139;28;20060;-71
2022/06/18 01:54:15;;;;;;;4.28;1.58;;;23.30;65.40;;;;;;2092507;28;20275;-71
2022/06/18 01:55:27;;;;;;;3.45;1.80;;;23.30;65.30;;;;;;2099445;28;20013;-71
2022/06/18 01:56:34;;;;;;;2.67;1.65;;;23.30;65.30;;;;;;2090256;28;20048;-71
2022/06/18 01:57:39;;;;;;;3.28;1.58;;;23.30;65.80;;;;;;2097349;28;20100;-71
2022/06/18 01:58:46;;;;;;;3.00;1.58;;;23.30;65.60;;;;;;2094469;28;20723;-71
2022/06/18 01:59:52;;;;;;;4.32;1.80;;;23.30;65.80;;;;;;2095979;28;20035;-71
2022/06/18 02:00:57;;;;;;;2.30;1.60;;;23.30;66.00;;;;;;2097587;28;20049;-71
2022/06/18 02:01:58;;;;;;;2.17;1.90;;;23.30;66.00;;;;;;2100051;28;20024;-71
2022/06/18 02:03:00;;;;;;;2.50;1.55;;;23.30;65.90;;;;;;2097676;28;20096;-71
2022/06/18 02:04:03;;;;;;;3.38;2.20;;;23.30;66.00;;;;;;2095559;28;20030;-71
2022/06/18 02:05:03;;;;;;;1.65;1.38;;;23.30;66.20;;;;;;2095935;28;20017;-71
2022/06/18 02:06:06;;;;;;;2.33;1.75;;;23.30;66.30;;;;;;2096051;28;20500;-71
2022/06/18 02:07:08;;;;;;;2.20;1.95;;;23.30;67.10;;;;;;2095339;28;20052;-71
2022/06/18 02:08:12;;;;;;;2.53;1.77;;;23.30;66.50;;;;;;2097778;28;20016;-71
2022/06/18 02:09:33;;;;;;;2.53;1.67;;;23.30;66.40;;;;;;2095830;28;20054;-71
2022/06/18 02:10:39;;;;;;;;;;;23.30;66.50;;;;;;2096714;28;20021;-71
2022/06/18 02:11:39;;;;;;;2.63;1.73;;;23.20;66.90;;;;;;2097360;28;19935;-71
2022/06/18 02:12:40;;;;;;;4.25;1.90;;;23.20;66.70;;;;;;2095785;28;20029;-71
2022/06/18 02:13:46;;;;;;;2.65;1.80;;;23.20;66.70;;;;;;2097102;28;20111;-71
2022/06/18 02:14:51;;;;;;;2.20;1.50;;;23.20;66.70;;;;;;2095345;28;20029;-71
2022/06/18 02:15:54;;;;;;;3.10;1.52;;;23.20;66.80;;;;;;2094791;28;20039;-71
2022/06/18 02:16:57;;;;;;;2.33;1.60;;;23.20;66.80;;;;;;2096613;28;20031;-71
2022/06/18 02:18:02;;;;;;;2.53;1.60;;;23.20;67.30;;;;;;2097821;28;20096;-71
2022/06/18 02:19:05;;;;;;;4.03;1.70;;;23.20;67.60;;;;;;2093710;28;20024;-71
2022/06/18 02:20:13;;;;;;;4.40;1.88;;;23.20;67.80;;;;;;2094684;28;20070;-71
2022/06/18 02:21:16;;;;;;;4.65;1.67;;;23.20;67.90;;;;;;2093640;28;20082;-71
2022/06/18 02:22:18;;;;;;;2.47;1.63;;;23.10;67.80;;;;;;2096890;28;20035;-71
2022/06/18 02:23:21;;;;;;;2.13;1.40;;;23.10;67.90;;;;;;2092626;28;20036;-71
2022/06/18 02:24:22;;;;;;;3.42;1.83;;;23.10;68.20;;;;;;2098973;28;20050;-71
2022/06/18 02:25:28;;;;;;;3.55;1.60;;;23.10;68.50;;;;;;2094676;28;20020;-71
2022/06/18 02:26:29;;;;;;;2.63;1.60;;;23.10;68.20;;;;;;2094557;28;20024;-71
2022/06/18 02:27:30;;;;;;;1.83;1.73;;;23.10;68.20;;;;;;2093220;28;20107;-71
2022/06/18 02:28:35;;;;;;;3.55;1.58;;;23.10;67.40;;;;;;2101336;28;20498;-71
2022/06/18 02:29:36;;;;;;;2.78;1.83;;;23.10;68.30;;;;;;2094318;28;20032;-71
2022/06/18 02:30:37;;;;;;;2.45;2.00;;;23.00;68.60;;;;;;2098956;28;20103;-71
2022/06/18 02:31:38;;;;;;;3.25;1.75;;;23.00;69.00;;;;;;2098631;28;20033;-71
2022/06/18 02:32:57;;;;;;;2.35;1.73;;;23.00;68.70;;;;;;2099480;28;20474;-71
2022/06/18 02:34:09;;;;;;;2.40;1.88;;;23.00;69.50;;;;;;2096292;28;20111;-71
2022/06/18 02:35:14;;;;;;;3.13;1.63;;;22.90;69.40;;;;;;2096817;28;20020;-71
2022/06/18 02:36:30;;;;;;;3.47;1.65;;;22.90;69.90;;;;;;2096082;28;20039;-71
2022/06/18 02:37:31;;;;;;;2.72;1.83;;;22.90;70.20;;;;;;2099562;28;20036;-71
2022/06/18 02:38:32;;;;;;;1.73;1.63;;;22.90;69.40;;;;;;2098189;28;20036;-71
2022/06/18 02:39:39;;;;;;;4.25;2.00;;;22.80;68.90;;;;;;2096547;28;20025;-71
2022/06/18 02:40:40;;;;;;;2.95;1.85;;;22.80;70.40;;;;;;2098668;28;20048;-71
2022/06/18 02:41:42;;;;;;;2.80;1.88;;;22.80;69.80;;;;;;2096987;28;20098;-71
2022/06/18 02:42:42;;;;;;;2.30;1.85;;;22.80;70.60;;;;;;2099677;28;20013;-71
2022/06/18 02:43:44;;;;;;;4.10;1.67;;;22.80;70.70;;;;;;2097612;28;20147;-71
2022/06/18 02:44:46;;;;;;;2.90;1.85;;;22.80;70.80;;;;;;2096138;28;20025;-71
2022/06/18 02:45:52;;;;;;;4.13;1.70;;;22.80;71.40;;;;;;2097830;28;20047;-71
2022/06/18 02:46:52;;;;;;;3.47;1.77;;;22.80;71.80;;;;;;2097465;28;20020;-71
2022/06/18 02:47:56;;;;;;;1.98;1.60;;;22.70;71.90;;;;;;2098090;28;20028;-71
2022/06/18 02:49:00;;;;;;;4.30;1.80;;;22.70;72.10;;;;;;2100290;28;20095;-71
2022/06/18 02:50:06;;;;;;;2.67;1.63;;;22.70;71.70;;;;;;2096305;28;20024;-71
2022/06/18 02:51:09;;;;;;;3.28;1.65;;;22.60;71.60;;;;;;2096109;28;20032;-71
2022/06/18 02:52:10;;;;;;;1.80;1.70;;;22.60;71.60;;;;;;2098645;28;20488;-71
2022/06/18 02:53:12;;;;;;;3.30;2.10;;;22.60;71.90;;;;;;2097986;28;20039;-71
2022/06/18 02:54:18;;;;;;;2.35;1.73;;;22.60;72.30;;;;;;2099075;28;20032;-71
2022/06/18 02:55:39;;;;;;;1.80;1.60;;;22.60;72.60;;;;;;2096864;28;20709;-71
2022/06/18 02:56:39;;;;;;;;;;;22.50;72.50;;;;;;2100176;28;20369;-71
2022/06/18 02:57:40;;;;;;;3.92;2.60;;;22.40;73.20;;;;;;2097560;28;19936;-71
2022/06/18 02:58:44;;;;;;;2.20;1.92;;;22.40;72.50;;;;;;2099707;28;20043;-71
2022/06/18 02:59:44;;;;;;;3.33;1.75;;;22.40;72.90;;;;;;2097674;28;20381;-71
2022/06/18 03:00:53;;;;;;;2.38;1.77;;;22.40;73.00;;;;;;2100161;28;20055;-71
2022/06/18 03:01:53;;;;;;;2.05;1.70;;;22.40;73.60;;;;;;2098206;28;20028;-71
2022/06/18 03:02:54;;;;;;;1.73;1.60;;;22.40;74.20;;;;;;2097031;28;20021;-71
2022/06/18 03:03:58;;;;;;;2.08;1.83;;;22.40;74.50;;;;;;2095756;28;20033;-71
2022/06/18 03:04:58;;;;;;;2.70;1.55;;;22.40;75.20;;;;;;2093688;28;20418;-71
2022/06/18 03:05:59;;;;;;;4.43;1.95;;;22.40;75.30;;;;;;2094225;28;20102;-71
2022/06/18 03:07:00;;;;;;;2.80;1.83;;;22.40;75.50;;;;;;2096498;28;20854;-71
2022/06/18 03:08:00;;;;;;;4.20;2.10;;;22.40;76.00;;;;;;2097430;28;20024;-71
2022/06/18 03:09:02;;;;;;;2.28;1.67;;;22.30;76.20;;;;;;2096145;28;20049;-71
2022/06/18 03:12:43;;;;;;;3.80;1.60;;;22.30;76.30;;;;;;2096461;28;20044;-71
2022/06/18 03:13:45;;;;;;;1.75;1.58;;;22.20;76.60;;;;;;2095083;28;20512;-71
2022/06/18 03:14:45;;;;;;;4.13;1.90;;;22.20;76.70;;;;;;2098358;28;20039;-71
2022/06/18 03:15:48;;;;;;;2.15;1.95;;;22.20;76.60;;;;;;2095352;28;20480;-71
2022/06/18 03:16:49;;;;;;;2.22;1.88;;;22.20;76.80;;;;;;2098519;28;20131;-72
2022/06/18 03:17:51;;;;;;;4.30;1.70;;;22.20;76.90;;;;;;2094446;28;20032;-71
2022/06/18 03:18:54;;;;;;;2.10;1.73;;;22.20;77.50;;;;;;2094757;28;20103;-71
2022/06/18 03:20:01;;;;;;;2.63;1.75;;;22.20;77.60;;;;;;2097228;28;20020;-71
2022/06/18 03:21:24;;;;;;;2.10;1.60;;;22.20;77.80;;;;;;2096515;28;20016;-71
2022/06/18 03:22:25;;;;;;;3.38;1.70;;;22.20;78.30;;;;;;2095141;28;20108;-71
2022/06/18 03:23:27;;;;;;;2.85;1.95;;;22.10;78.30;;;;;;2099441;28;20074;-71
2022/06/18 03:24:27;;;;;;;3.30;1.60;;;22.10;78.30;;;;;;2098356;28;20016;-71
2022/06/18 03:25:28;;;;;;;2.65;1.80;;;22.10;79.10;;;;;;2097946;28;20044;-71
2022/06/18 03:26:29;;;;;;;2.03;1.70;;;22.10;79.10;;;;;;2097054;28;20033;-71
2022/06/18 03:27:30;;;;;;;2.45;1.98;;;22.10;79.20;;;;;;2094365;28;20476;-71
2022/06/18 03:28:30;;;;;;;3.53;2.03;;;22.10;79.30;;;;;;2098787;28;20024;-71
2022/06/18 03:29:31;;;;;;;2.78;1.80;;;22.10;79.50;;;;;;2096221;28;20013;-71
2022/06/18 03:30:31;;;;;;;2.10;1.90;;;22.10;79.50;;;;;;2099980;28;20019;-71
2022/06/18 03:31:33;;;;;;;2.83;2.13;;;22.10;79.70;;;;;;2096324;28;20052;-71
2022/06/18 03:32:33;;;;;;;5.47;1.90;;;22.10;80.10;;;;;;2096344;28;20549;-71
2022/06/18 03:33:34;;;;;;;2.83;1.90;;;22.10;80.20;;;;;;2097889;28;20028;-71
2022/06/18 03:34:35;;;;;;;5.68;2.38;;;22.10;80.40;;;;;;2096647;28;21388;-71
2022/06/18 03:35:37;;;;;;;3.85;2.00;;;22.10;80.40;;;;;;2097195;28;20115;-71
2022/06/18 03:36:38;;;;;;;3.38;1.70;;;22.10;80.60;;;;;;2098622;28;20410;-71
2022/06/18 03:37:39;;;;;;;2.30;1.92;;;22.10;80.70;;;;;;2097568;28;20029;-71
2022/06/18 03:38:39;;;;;;;3.13;1.50;;;22.10;80.90;;;;;;2097689;28;20025;-71
2022/06/18 03:39:40;;;;;;;6.30;2.00;;;22.10;81.30;;;;;;2095725;28;20047;-71
2022/06/18 03:40:43;;;;;;;3.63;1.65;;;22.10;81.40;;;;;;2098219;28;20486;-71
2022/06/18 03:41:44;;;;;;;4.55;2.15;;;22.10;81.50;;;;;;2098630;28;20025;-71
2022/06/18 03:42:44;;;;;;;2.85;1.90;;;22.10;81.40;;;;;;2095678;28;20700;-71
2022/06/18 03:43:45;;;;;;;4.13;1.95;;;22.10;81.50;;;;;;2097630;28;21343;-71
2022/06/18 03:44:46;;;;;;;4.10;1.75;;;22.10;81.90;;;;;;2097193;28;20023;-71
2022/06/18 03:45:50;;;;;;;2.50;1.75;;;22.10;82.00;;;;;;2097160;28;20365;-71
2022/06/18 03:46:51;;;;;;;1.73;1.58;;;22.10;82.10;;;;;;2099548;28;20031;-71
2022/06/18 03:47:52;;;;;;;3.72;2.10;;;22.10;82.40;;;;;;2097205;28;20031;-71
2022/06/18 03:49:01;;;;;;;2.85;1.75;;;22.20;82.70;;;;;;2100624;28;20025;-71
2022/06/18 03:50:03;;;;;;;2.23;1.70;;;22.20;83.10;;;;;;2099000;28;20028;-71
2022/06/18 03:51:04;;;;;;;2.53;1.67;;;22.10;82.90;;;;;;2096071;28;20047;-71
2022/06/18 03:52:07;;;;;;;4.55;1.90;;;22.10;83.10;;;;;;2099367;28;20032;-71
2022/06/18 03:53:09;;;;;;;4.30;2.40;;;22.20;84.00;;;;;;2098936;28;20481;-71
2022/06/18 03:54:09;;;;;;;2.40;2.20;;;22.20;83.80;;;;;;2097260;28;20017;-71
2022/06/18 03:55:12;;;;;;;1.92;1.70;;;22.20;83.40;;;;;;2097909;28;20028;-71
2022/06/18 03:56:16;;;;;;;2.88;1.90;;;22.20;83.40;;;;;;2095868;28;20017;-71
2022/06/18 03:57:19;;;;;;;2.88;1.90;;;22.20;84.00;;;;;;2097175;28;20032;-71
2022/06/18 03:58:19;;;;;;;4.57;1.80;;;22.30;84.20;;;;;;2099035;28;20024;-71
2022/06/18 03:59:21;;;;;;;3.30;2.08;;;22.30;83.70;;;;;;2095040;28;20029;-71
2022/06/18 04:00:23;;;;;;;3.65;1.75;;;22.40;84.60;;;;;;2098640;28;20024;-71
2022/06/18 04:01:28;;;;;;;2.75;2.03;;;22.40;84.60;;;;;;2094653;28;20431;-71
2022/06/18 04:02:29;;;;;;;3.33;2.33;;;22.40;84.70;;;;;;2111439;27;20102;-71
2022/06/18 04:03:29;;;;;;;4.22;2.08;;;22.50;84.00;;;;;;2111461;27;20020;-71
2022/06/18 04:04:30;;;;;;;2.10;1.90;;;22.50;84.10;;;;;;2099110;28;20028;-71
2022/06/18 04:05:32;;;;;;;2.20;1.77;;;22.60;84.30;;;;;;2097501;28;20558;-71
2022/06/18 04:06:33;;;;;;;3.03;2.00;;;22.60;85.10;;;;;;2097664;28;20025;-71
2022/06/18 04:07:36;;;;;;;3.78;1.95;;;22.70;85.30;;;;;;2095783;28;20051;-71
2022/06/18 04:08:37;;;;;;;2.75;1.92;;;22.80;85.20;;;;;;2096840;28;20020;-71
2022/06/18 04:09:37;;;;;;;2.83;1.70;;;22.80;85.70;;;;;;2095915;28;20099;-71
2022/06/18 04:10:39;;;;;;;6.00;2.13;;;22.90;84.30;;;;;;2098084;28;20024;-71
2022/06/18 04:11:39;;;;;;;4.18;2.25;;;23.00;84.50;;;;;;2099554;28;20024;-71
2022/06/18 04:12:40;;;;;;;3.60;1.92;;;23.10;84.80;;;;;;2097030;28;20074;-71
2022/06/18 04:13:41;;;;;;;2.03;1.55;;;23.20;84.60;;;;;;2111104;28;20031;-71
2022/06/18 04:14:41;;;;;;;6.72;2.15;;;23.30;82.80;;;;;;2110358;27;20518;-71
2022/06/18 04:15:42;;;;;;;2.10;1.90;;;23.30;83.40;;;;;;2096140;28;20111;-71
2022/06/18 04:16:43;;;;;;;2.60;2.08;;;23.40;83.30;;;;;;2097090;28;20618;-71
2022/06/18 04:17:44;;;;;;;5.43;2.33;;;23.50;82.90;;;;;;2096879;28;20449;-71
2022/06/18 04:18:44;;;;;;;2.42;1.67;;;23.60;81.80;;;;;;2098484;28;20030;-71
2022/06/18 04:19:45;;;;;;;1.92;1.73;;;23.70;80.80;;;;;;2098634;28;20058;-71
2022/06/18 04:20:45;;;;;;;3.95;2.03;;;23.70;80.00;;;;;;2095052;28;20024;-71
2022/06/18 04:21:46;;;;;;;2.80;2.15;;;23.80;80.60;;;;;;2094374;28;20048;-71
2022/06/18 04:22:47;;;;;;;4.20;2.50;;;23.90;80.40;;;;;;2097770;28;20024;-71
2022/06/18 04:23:47;;;;;;;6.05;2.15;;;24.00;79.90;;;;;;2098293;28;20055;-71
2022/06/18 04:24:48;;;;;;;2.58;2.35;;;24.00;79.20;;;;;;2096795;28;20088;-71
2022/06/18 04:25:49;;;;;;;3.17;1.88;;;24.10;79.50;;;;;;2093374;28;20024;-71
2022/06/18 04:26:49;;;;;;;4.40;2.70;;;24.10;78.40;;;;;;2096494;28;20380;-71
2022/06/18 04:27:50;;;;;;;3.40;1.98;;;24.10;78.70;;;;;;2097525;28;20077;-71
2022/06/18 04:28:51;;;;;;;5.22;2.42;;;24.10;78.90;;;;;;2095472;28;20048;-71
2022/06/18 04:29:51;;;;;;;3.75;2.03;;;24.10;78.30;;;;;;2097121;28;20380;-71
2022/06/18 04:30:52;;;;;;;4.00;2.20;;;24.10;78.30;;;;;;2099413;28;20018;-71
2022/06/18 04:31:53;;;;;;;3.70;2.20;;;24.10;79.40;;;;;;2094561;28;20143;-71
2022/06/18 04:32:54;;;;;;;3.63;2.40;;;24.10;79.10;;;;;;2100101;28;20027;-71
2022/06/18 04:33:55;;;;;;;7.97;2.67;;;24.10;79.90;;;;;;2097975;28;20044;-71
2022/06/18 04:34:55;;;;;;;7.30;1.83;;;24.20;80.60;;;;;;2096990;28;20017;-71
2022/06/18 04:35:58;;;;;;;3.28;2.05;;;24.10;80.90;;;;;;2096207;28;20388;-71
2022/06/18 04:36:58;;;;;;;3.65;2.35;;;24.20;80.90;;;;;;2097225;28;20035;-71
2022/06/18 04:38:00;;;;;;;2.90;2.03;;;24.20;79.80;;;;;;2097559;28;20052;-71
2022/06/18 04:39:01;;;;;;;2.40;1.75;;;24.20;80.30;;;;;;2097289;28;20025;-71
2022/06/18 04:40:03;;;;;;;2.85;1.80;;;24.20;81.30;;;;;;2096294;28;20030;-71
2022/06/18 04:41:03;;;;;;;3.35;2.15;;;24.20;80.90;;;;;;2097696;28;20016;-71
2022/06/18 04:42:04;;;;;;;4.57;2.35;;;24.20;81.80;;;;;;2096916;28;20017;-71
2022/06/18 04:43:08;;;;;;;2.10;1.90;;;24.30;81.10;;;;;;2097367;28;20032;-71
2022/06/18 04:44:08;;;;;;;4.13;2.08;;;24.40;82.30;;;;;;2096595;28;20471;-71
2022/06/18 04:45:10;;;;;;;10.32;2.72;;;24.40;81.90;;;;;;2098112;28;20028;-71
2022/06/18 04:46:10;;;;;;;7.57;1.90;;;24.40;81.80;;;;;;2095515;28;20113;-71
2022/06/18 04:47:11;;;;;;;3.55;2.10;;;24.40;81.10;;;;;;2096716;28;20021;-71
2022/06/18 04:48:13;;;;;;;4.32;1.85;;;24.40;80.50;;;;;;2097411;28;20078;-71
2022/06/18 04:49:14;;;;;;;4.70;2.20;;;24.50;79.80;;;;;;2096433;28;20036;-71
2022/06/18 04:50:20;;;;;;;5.72;2.45;;;24.60;78.80;;;;;;2096893;28;20024;-71
2022/06/18 04:51:20;;;;;;;2.00;1.83;;;24.60;79.10;;;;;;2093182;28;20111;-71
2022/06/18 04:52:21;;;;;;;2.95;1.90;;;24.60;80.00;;;;;;2096126;28;20035;-71
2022/06/18 04:53:22;;;;;;;3.72;2.00;;;24.60;78.90;;;;;;2095499;28;20027;-71
2022/06/18 04:54:22;;;;;;;3.97;1.80;;;24.60;78.60;;;;;;2097273;28;20052;-71
2022/06/18 04:55:23;;;;;;;6.55;2.17;;;24.70;78.20;;;;;;2095647;28;20024;-71
2022/06/18 04:56:24;;;;;;;3.88;1.92;;;24.80;77.40;;;;;;2097023;28;20032;-71
2022/06/18 04:57:24;;;;;;;3.30;1.90;;;24.80;78.10;;;;;;2096077;28;20028;-71
2022/06/18 04:58:25;;;;;;;4.18;1.80;;;24.80;77.70;;;;;;2098751;28;20025;-71
2022/06/18 04:59:26;;;;;;;2.78;2.08;;;24.90;78.10;;;;;;2097871;28;20024;-71
2022/06/18 05:00:26;;;;;;;4.00;1.95;;;24.90;76.90;;;;;;2112951;27;20022;-71
2022/06/18 05:01:31;;;;;;;3.40;2.30;;;25.00;76.70;;;;;;2111782;27;20808;-72
2022/06/18 05:02:33;;;;;;;3.65;2.10;;;25.00;77.20;;;;;;2094325;28;20069;-71
2022/06/18 05:03:34;;;;;;;3.08;2.13;;;25.00;75.90;;;;;;2098173;28;20484;-71
2022/06/18 05:04:34;;;;;;;4.47;1.98;;;25.00;75.40;;;;;;2095886;28;20366;-71
2022/06/18 05:05:36;;;;;;;4.10;1.88;;;25.10;74.70;;;;;;2092106;28;20059;-71
2022/06/18 05:06:36;;;;;;;2.83;2.00;;;25.20;75.40;;;;;;2096043;28;20024;-71
2022/06/18 05:07:37;;;;;;;5.47;2.45;;;25.20;74.70;;;;;;2095407;28;20015;-71
2022/06/18 05:08:38;;;;;;;4.53;2.60;;;25.30;75.40;;;;;;2096239;28;20032;-71
2022/06/18 05:09:38;;;;;;;6.20;2.70;;;25.30;75.00;;;;;;2097843;28;20484;-71
2022/06/18 05:10:39;;;;;;;4.65;2.28;;;25.40;76.20;;;;;;2097675;28;20031;-71
2022/06/18 05:11:40;;;;;;;6.05;2.38;;;25.40;78.00;;;;;;2095597;28;20055;-71
2022/06/18 05:12:41;;;;;;;4.03;2.20;;;25.50;75.40;;;;;;2094886;28;20024;-71
2022/06/18 05:13:41;;;;;;;4.57;2.60;;;25.50;75.40;;;;;;2095199;28;20028;-71
2022/06/18 05:14:43;;;;;;;3.53;2.50;;;25.60;75.60;;;;;;2099959;28;20036;-71
2022/06/18 05:15:45;;;;;;;3.03;2.08;;;25.60;75.10;;;;;;2094957;28;20027;-71
2022/06/18 05:16:45;;;;;;;3.45;2.22;;;25.70;75.30;;;;;;2097810;28;20019;-71
2022/06/18 05:17:47;;;;;;;6.75;2.55;;;25.70;74.50;;;;;;2098634;28;20019;-71
2022/06/18 05:18:47;;;;;;;4.43;2.05;;;25.80;74.40;;;;;;2094924;28;20099;-71
2022/06/18 05:19:48;;;;;;;5.72;2.63;;;25.80;73.90;;;;;;2098308;28;20074;-69
2022/06/18 05:20:51;;;;;;;4.30;2.50;;;25.90;73.40;;;;;;2097474;28;20032;-69
2022/06/18 05:21:52;;;;;;;4.32;2.30;;;26.00;73.30;;;;;;2095810;28;20123;-69
2022/06/18 05:22:53;;;;;;;3.47;2.40;;;26.00;73.00;;;;;;2098851;28;20032;-69
2022/06/18 05:23:53;;;;;;;3.17;2.13;;;26.00;72.40;;;;;;2096293;28;20074;-71
2022/06/18 05:24:54;;;;;;;3.97;2.33;;;26.10;72.60;;;;;;2098193;28;20415;-71
2022/06/18 05:25:59;;;;;;;4.60;2.20;;;26.10;73.20;;;;;;2099308;28;20024;-71
2022/06/18 05:27:00;;;;;;;3.85;2.10;;;26.20;71.00;;;;;;2095551;28;20446;-71
2022/06/18 05:28:01;;;;;;;7.40;2.50;;;26.30;70.50;;;;;;2096241;28;20066;-71
2022/06/18 05:29:01;;;;;;;2.00;1.80;;;26.30;71.40;;;;;;2098199;28;20036;-71
2022/06/18 05:30:05;;;;;;;3.55;2.35;;;26.40;71.20;;;;;;2098868;28;20029;-71
2022/06/18 05:31:06;;;;;;;8.05;2.30;;;26.50;71.20;;;;;;2095625;28;20142;-71
2022/06/18 05:32:07;;;;;;;4.53;2.05;;;26.50;69.60;;;;;;2095005;28;20115;-71
2022/06/18 05:33:08;;;;;;;4.50;2.15;;;26.50;68.10;;;;;;2096572;28;20179;-71
2022/06/18 05:34:09;;;;;;;3.08;2.00;;;26.60;68.00;;;;;;2095751;28;20021;-71
2022/06/18 05:35:11;;;;;;;3.55;2.05;;;26.60;67.90;;;;;;2095275;28;20033;-71
2022/06/18 05:36:19;;;;;;;4.00;2.58;;;26.70;68.90;;;;;;2096851;28;20412;-71
2022/06/18 05:37:24;;;;;;;3.90;2.22;;;26.80;67.20;;;;;;2095615;28;20102;-71